Time;durP1;ratioP1;P1;durP2;ratioP2;P2;SDS_P1;SDS_P2;PMS_P1;PMS_P2;Temp;Humidity;BMP_temperature;BMP_pressure;BME280_temperature;BME280_humidity;BME280_pressure;Samples;Min_cycle;Max_cycle;Signal;HPM_P1;HPM_P2
2022/10/27 00:00:38;;;;;;;9.55;7.13;;;12.50;99.90;;;;;;7367201;19;20571;-63
2022/10/27 00:03:05;;;;;;;10.75;6.88;;;12.50;99.90;;;;;;7364265;19;20042;-62
2022/10/27 00:05:33;;;;;;;13.93;9.18;;;12.40;99.90;;;;;;7367505;19;20014;-62
2022/10/27 00:07:59;;;;;;;10.57;7.93;;;12.40;99.90;;;;;;7366182;19;20030;-63
2022/10/27 00:10:26;;;;;;;11.93;8.55;;;12.40;99.90;;;;;;7367196;19;20033;-59
2022/10/27 00:12:52;;;;;;;12.25;8.45;;;12.30;99.90;;;;;;7369345;19;20457;-60
2022/10/27 00:15:18;;;;;;;13.63;8.02;;;12.40;99.90;;;;;;7366114;19;20014;-63
2022/10/27 00:17:45;;;;;;;9.15;8.18;;;12.40;99.90;;;;;;7369089;19;20025;-63
2022/10/27 00:20:12;;;;;;;15.63;9.00;;;12.40;99.90;;;;;;7371085;19;20022;-59
2022/10/27 00:22:38;;;;;;;11.05;7.07;;;12.40;99.90;;;;;;7363735;19;20139;-59
2022/10/27 00:25:04;;;;;;;11.55;7.40;;;12.40;99.90;;;;;;7369302;19;20090;-59
2022/10/27 00:27:31;;;;;;;14.43;9.00;;;12.40;99.90;;;;;;7364780;19;20035;-58
2022/10/27 00:29:57;;;;;;;12.82;8.65;;;12.40;99.90;;;;;;7372543;19;20434;-58
2022/10/27 00:32:24;;;;;;;10.55;8.18;;;12.40;99.90;;;;;;7372779;19;20031;-62
2022/10/27 00:34:50;;;;;;;13.48;9.20;;;12.50;99.90;;;;;;7374071;19;20022;-61
2022/10/27 00:37:16;;;;;;;15.30;8.70;;;12.50;99.90;;;;;;7370771;19;20018;-62
2022/10/27 00:39:42;;;;;;;17.05;10.40;;;12.50;99.90;;;;;;7368444;19;20023;-58
2022/10/27 00:42:13;;;;;;;13.30;9.68;;;12.60;99.90;;;;;;7371344;19;20028;-61
2022/10/27 00:44:42;;;;;;;15.25;9.60;;;12.60;99.90;;;;;;7372495;19;20462;-58
2022/10/27 00:47:08;;;;;;;16.23;9.23;;;12.60;99.90;;;;;;7373146;19;20014;-59
2022/10/27 00:49:40;;;;;;;13.90;9.35;;;12.70;99.90;;;;;;7372274;19;20169;-58
2022/10/27 00:52:12;;;;;;;15.02;9.73;;;12.70;99.90;;;;;;7375082;19;20517;-58
2022/10/27 00:54:40;;;;;;;;;;;12.70;99.90;;;;;;7367620;19;20039;-58
2022/10/27 00:57:08;;;;;;;14.90;10.27;;;12.80;99.90;;;;;;7370817;19;19930;-61
2022/10/27 00:59:36;;;;;;;15.27;10.68;;;12.90;99.90;;;;;;7370232;19;20900;-61
2022/10/27 01:02:03;;;;;;;13.25;9.70;;;12.90;99.90;;;;;;7372356;19;20482;-61
2022/10/27 01:04:36;;;;;;;14.40;9.90;;;12.80;99.90;;;;;;7368924;19;20463;-62
2022/10/27 01:07:03;;;;;;;14.98;9.98;;;12.80;99.90;;;;;;7374104;19;20021;-58
2022/10/27 01:09:30;;;;;;;14.15;9.95;;;12.80;99.90;;;;;;7374784;19;20025;-58
2022/10/27 01:11:57;;;;;;;13.98;8.68;;;12.80;99.90;;;;;;7373157;19;20420;-58
2022/10/27 01:14:23;;;;;;;13.65;9.25;;;12.70;99.90;;;;;;7375516;19;20734;-58
2022/10/27 01:16:52;;;;;;;13.95;9.25;;;12.70;99.90;;;;;;7375038;19;21502;-58
2022/10/27 01:20:03;;;;;;;13.43;10.48;;;12.70;99.90;;;;;;7378043;19;20121;-59
2022/10/27 01:22:39;;;;;;;11.93;10.00;;;12.70;99.90;;;;;;7372413;19;20359;-58
2022/10/27 01:25:14;;;;;;;15.82;10.38;;;12.70;99.90;;;;;;7379829;19;20389;-62
2022/10/27 01:28:14;;;;;;;13.55;9.70;;;12.70;99.90;;;;;;7376857;19;20019;-62
2022/10/27 01:31:06;;;;;;;13.00;9.25;;;12.70;99.90;;;;;;7377576;19;20022;-62
2022/10/27 01:33:46;;;;;;;13.38;8.35;;;12.70;99.90;;;;;;7379352;19;20022;-61
2022/10/27 01:36:31;;;;;;;17.20;10.05;;;12.80;99.90;;;;;;7378401;19;20516;-58
2022/10/27 01:39:25;;;;;;;17.05;9.60;;;12.80;99.90;;;;;;7376490;19;20039;-60
2022/10/27 01:42:17;;;;;;;11.07;8.70;;;12.80;99.90;;;;;;7376684;19;20073;-58
2022/10/27 01:44:45;;;;;;;;;;;12.90;99.90;;;;;;7377327;19;20115;-58
2022/10/27 01:47:12;;;;;;;11.70;9.55;;;12.90;99.90;;;;;;7381406;19;19923;-58
2022/10/27 01:49:40;;;;;;;15.73;9.65;;;12.90;99.90;;;;;;7376652;19;20022;-58
2022/10/27 01:52:26;;;;;;;16.08;10.65;;;13.00;99.90;;;;;;7372935;19;20018;-58
2022/10/27 01:54:55;;;;;;;16.65;10.60;;;13.00;99.90;;;;;;7377094;19;20055;-58
2022/10/27 01:57:55;;;;;;;11.50;10.13;;;13.10;99.90;;;;;;7375600;19;20043;-60
2022/10/27 02:00:21;;;;;;;18.77;11.02;;;13.20;99.90;;;;;;7374510;19;20574;-59
2022/10/27 02:03:00;;;;;;;17.17;11.00;;;13.30;99.90;;;;;;7379209;19;20018;-58
2022/10/27 02:05:45;;;;;;;11.68;10.38;;;13.30;99.90;;;;;;7376499;19;20014;-58
2022/10/27 02:08:50;;;;;;;14.38;10.48;;;13.30;99.90;;;;;;7380940;19;20021;-60
2022/10/27 02:11:16;;;;;;;16.70;10.27;;;13.40;99.90;;;;;;7378952;19;20502;-61
2022/10/27 02:13:44;;;;;;;13.70;10.05;;;13.40;99.90;;;;;;7379401;19;20465;-61
2022/10/27 02:16:24;;;;;;;13.68;10.30;;;13.40;99.90;;;;;;7376909;19;20493;-58
2022/10/27 02:18:56;;;;;;;15.80;9.60;;;13.50;99.90;;;;;;7373401;19;20108;-58
2022/10/27 02:21:23;;;;;;;;;;;13.60;99.90;;;;;;7376095;19;20019;-59
2022/10/27 02:23:51;;;;;;;19.38;10.63;;;13.60;99.90;;;;;;7372548;19;19919;-58
2022/10/27 02:26:35;;;;;;;14.05;9.32;;;13.60;99.90;;;;;;7376455;19;20364;-58
2022/10/27 02:29:05;;;;;;;16.70;11.23;;;13.60;99.90;;;;;;7375470;19;20530;-58
2022/10/27 02:31:39;;;;;;;16.08;10.13;;;13.60;99.90;;;;;;7374050;19;20668;-59
2022/10/27 02:34:06;;;;;;;14.05;10.13;;;13.50;99.90;;;;;;7375613;19;20541;-58
2022/10/27 02:36:33;;;;;;;11.50;9.75;;;13.40;99.90;;;;;;7374111;19;20419;-58
2022/10/27 02:38:59;;;;;;;14.20;10.05;;;13.40;99.90;;;;;;7374326;19;20398;-58
2022/10/27 02:41:25;;;;;;;15.30;9.93;;;13.40;99.90;;;;;;7373226;19;20094;-58
2022/10/27 02:43:51;;;;;;;14.88;9.60;;;13.40;99.90;;;;;;7372647;19;20439;-59
2022/10/27 02:46:17;;;;;;;17.83;9.73;;;13.30;99.90;;;;;;7374183;19;20045;-59
2022/10/27 02:48:44;;;;;;;13.93;9.10;;;13.30;99.90;;;;;;7376294;19;20757;-58
2022/10/27 02:51:11;;;;;;;13.90;10.15;;;13.30;99.90;;;;;;7376091;19;20011;-61
2022/10/27 02:53:37;;;;;;;14.82;10.20;;;13.30;99.90;;;;;;7373319;19;20065;-60
2022/10/27 02:56:03;;;;;;;15.07;10.85;;;13.30;99.90;;;;;;7371304;19;20527;-61
2022/10/27 02:58:30;;;;;;;15.77;10.13;;;13.20;99.90;;;;;;7372766;19;20074;-59
2022/10/27 03:00:56;;;;;;;11.18;9.88;;;13.20;99.90;;;;;;7373205;19;20022;-58
2022/10/27 03:03:23;;;;;;;13.55;9.73;;;13.20;99.90;;;;;;7374716;19;20342;-59
2022/10/27 03:05:49;;;;;;;13.25;10.18;;;13.20;99.90;;;;;;7372807;19;20018;-59
2022/10/27 03:08:16;;;;;;;13.80;9.60;;;13.10;99.90;;;;;;7372066;19;20017;-59
2022/10/27 03:10:43;;;;;;;12.50;9.20;;;13.00;99.90;;;;;;7377022;19;20053;-61
2022/10/27 03:13:09;;;;;;;13.32;9.93;;;13.00;99.90;;;;;;7375134;19;20400;-61
2022/10/27 03:15:35;;;;;;;10.82;9.70;;;12.90;99.90;;;;;;7372042;19;20073;-62
2022/10/27 03:18:02;;;;;;;17.92;11.20;;;12.90;99.90;;;;;;7373262;19;20010;-61
2022/10/27 03:20:28;;;;;;;18.08;10.55;;;12.80;99.90;;;;;;7372890;19;20025;-61
2022/10/27 03:22:55;;;;;;;14.23;11.10;;;12.90;99.90;;;;;;7375650;19;20033;-61
2022/10/27 03:25:21;;;;;;;14.85;10.77;;;12.90;99.90;;;;;;7376772;19;20033;-59
2022/10/27 03:27:49;;;;;;;16.83;10.70;;;12.80;99.90;;;;;;7375890;19;20022;-61
2022/10/27 03:30:16;;;;;;;18.90;11.48;;;12.80;99.90;;;;;;7370717;19;20011;-61
2022/10/27 03:32:48;;;;;;;15.57;11.63;;;12.80;99.90;;;;;;7373848;19;20441;-61
2022/10/27 03:35:16;;;;;;;16.02;12.13;;;12.80;99.90;;;;;;7373947;19;20023;-59
2022/10/27 03:37:42;;;;;;;15.35;10.95;;;12.80;99.90;;;;;;7371536;19;20364;-59
2022/10/27 03:40:09;;;;;;;16.80;11.25;;;12.80;99.90;;;;;;7370854;19;20018;-59
2022/10/27 03:42:42;;;;;;;14.20;10.63;;;12.70;99.90;;;;;;7372017;19;20038;-59
2022/10/27 03:45:09;;;;;;;18.38;12.10;;;12.60;99.90;;;;;;7374654;19;20014;-59
2022/10/27 03:47:35;;;;;;;14.65;11.00;;;12.60;99.90;;;;;;7373289;19;20493;-59
2022/10/27 03:50:02;;;;;;;14.10;11.98;;;12.60;99.90;;;;;;7374990;19;20293;-59
2022/10/27 03:52:28;;;;;;;15.23;12.35;;;12.50;99.90;;;;;;7373252;19;20022;-58
2022/10/27 03:54:54;;;;;;;16.08;12.25;;;12.50;99.90;;;;;;7374566;19;20493;-58
2022/10/27 03:57:20;;;;;;;15.73;11.68;;;12.40;99.90;;;;;;7374319;19;20015;-59
2022/10/27 03:59:46;;;;;;;20.80;12.70;;;12.30;99.90;;;;;;7368422;19;20482;-62
2022/10/27 04:02:13;;;;;;;14.60;11.57;;;12.30;99.90;;;;;;7369624;19;20040;-59
2022/10/27 04:04:39;;;;;;;14.65;11.23;;;12.20;99.90;;;;;;7369591;19;20025;-59
2022/10/27 04:07:05;;;;;;;14.10;11.55;;;12.20;99.90;;;;;;7373635;19;20478;-58
2022/10/27 04:09:32;;;;;;;15.18;10.95;;;12.20;99.90;;;;;;7369533;19;20023;-59
2022/10/27 04:11:58;;;;;;;14.43;10.77;;;12.10;99.90;;;;;;7373520;19;20505;-58
2022/10/27 04:14:24;;;;;;;14.02;10.43;;;12.10;99.90;;;;;;7372866;19;20761;-58
2022/10/27 04:16:51;;;;;;;14.77;10.48;;;12.10;99.90;;;;;;7370222;19;20025;-60
2022/10/27 04:19:20;;;;;;;14.38;11.82;;;12.00;99.90;;;;;;7375095;19;20525;-58
2022/10/27 04:21:47;;;;;;;16.75;12.68;;;12.00;99.90;;;;;;7371413;19;20095;-58
2022/10/27 04:24:13;;;;;;;14.93;12.20;;;12.00;99.90;;;;;;7371364;19;20018;-58
2022/10/27 04:26:40;;;;;;;17.85;12.70;;;12.00;99.90;;;;;;7370628;19;20406;-58
2022/10/27 04:29:06;;;;;;;17.85;12.45;;;11.90;99.90;;;;;;7372635;19;20018;-59
2022/10/27 04:31:32;;;;;;;15.23;12.27;;;12.00;99.90;;;;;;7370420;19;20490;-59
2022/10/27 04:33:58;;;;;;;18.13;14.32;;;11.90;99.90;;;;;;7369850;19;20046;-59
2022/10/27 04:36:25;;;;;;;20.23;14.70;;;11.90;99.90;;;;;;7372137;19;20445;-59
2022/10/27 04:38:51;;;;;;;22.98;15.20;;;12.00;99.90;;;;;;7369880;19;20022;-59
2022/10/27 04:41:17;;;;;;;19.63;13.73;;;12.00;99.90;;;;;;7369956;19;20018;-61
2022/10/27 04:43:47;;;;;;;21.75;15.77;;;12.10;99.90;;;;;;7368813;19;20035;-61
2022/10/27 04:46:13;;;;;;;21.85;15.48;;;12.10;99.90;;;;;;7367050;19;20022;-61
2022/10/27 04:48:40;;;;;;;19.77;14.15;;;12.20;99.90;;;;;;7366032;19;20082;-59
2022/10/27 04:51:06;;;;;;;23.70;14.93;;;12.20;99.90;;;;;;7372669;19;20014;-61
2022/10/27 04:53:32;;;;;;;21.27;17.05;;;12.20;99.90;;;;;;7369495;19;20178;-61
2022/10/27 04:55:58;;;;;;;25.50;18.00;;;12.30;99.90;;;;;;7366237;19;20018;-61
2022/10/27 04:58:24;;;;;;;23.70;17.50;;;12.40;99.90;;;;;;7367787;19;20018;-61
2022/10/27 05:00:51;;;;;;;22.23;16.60;;;12.40;99.90;;;;;;7368262;19;20049;-61
2022/10/27 05:03:17;;;;;;;24.05;18.45;;;12.50;99.90;;;;;;7372362;19;20120;-61
2022/10/27 05:05:43;;;;;;;21.10;17.98;;;12.50;99.90;;;;;;7370246;19;20018;-59
2022/10/27 05:08:10;;;;;;;22.23;18.10;;;12.50;99.90;;;;;;7369994;19;20043;-57
2022/10/27 05:10:37;;;;;;;21.13;16.08;;;12.60;99.90;;;;;;7372082;19;20031;-57
2022/10/27 05:13:04;;;;;;;22.88;17.05;;;12.50;99.90;;;;;;7370789;19;20014;-58
2022/10/27 05:15:30;;;;;;;17.77;13.82;;;12.50;99.90;;;;;;7373157;19;20042;-58
2022/10/27 05:17:56;;;;;;;24.35;16.17;;;12.50;99.90;;;;;;7374743;19;20353;-59
2022/10/27 05:20:23;;;;;;;20.02;14.73;;;12.60;99.90;;;;;;7372048;19;20018;-59
2022/10/27 05:22:49;;;;;;;23.23;15.90;;;12.60;99.90;;;;;;7371609;19;20026;-59
2022/10/27 05:25:16;;;;;;;20.13;15.45;;;12.50;99.90;;;;;;7370797;19;20098;-59
2022/10/27 05:27:42;;;;;;;19.08;15.35;;;12.60;99.90;;;;;;7373065;19;20533;-60
2022/10/27 05:30:10;;;;;;;17.65;13.48;;;12.60;99.90;;;;;;7368599;19;20029;-60
2022/10/27 05:32:36;;;;;;;21.48;16.30;;;12.60;99.90;;;;;;7369524;19;20021;-59
2022/10/27 05:35:03;;;;;;;17.05;13.43;;;12.60;99.90;;;;;;7369559;19;20056;-56
2022/10/27 05:37:30;;;;;;;20.33;14.85;;;12.60;99.90;;;;;;7366379;19;20022;-58
2022/10/27 05:39:56;;;;;;;19.80;15.15;;;12.50;99.90;;;;;;7366820;19;20581;-58
2022/10/27 05:42:23;;;;;;;18.55;15.63;;;12.60;99.90;;;;;;7363520;19;20026;-58
2022/10/27 05:44:49;;;;;;;19.02;14.60;;;12.60;99.90;;;;;;7363126;19;20019;-57
2022/10/27 05:47:15;;;;;;;18.58;15.57;;;12.70;99.90;;;;;;7366867;19;20496;-60
2022/10/27 05:49:42;;;;;;;19.40;15.98;;;12.70;99.90;;;;;;7365858;19;20351;-57
2022/10/27 05:52:08;;;;;;;21.13;15.18;;;12.70;99.90;;;;;;7367002;19;20371;-59
2022/10/27 05:54:34;;;;;;;20.92;15.07;;;12.80;99.90;;;;;;7370949;19;20015;-60
2022/10/27 05:57:01;;;;;;;20.90;16.20;;;12.80;99.90;;;;;;7375304;19;20018;-59
2022/10/27 05:59:27;;;;;;;20.02;14.10;;;12.80;99.90;;;;;;7379115;19;20119;-60
2022/10/27 06:01:54;;;;;;;18.45;13.38;;;12.80;99.90;;;;;;7375304;19;20703;-59
2022/10/27 06:04:20;;;;;;;17.77;12.95;;;12.80;99.90;;;;;;7372315;19;20078;-58
2022/10/27 06:06:46;;;;;;;19.00;13.85;;;12.70;99.90;;;;;;7373311;19;20019;-59
2022/10/27 06:09:13;;;;;;;18.92;14.52;;;12.80;99.90;;;;;;7372867;19;20034;-59
2022/10/27 06:11:40;;;;;;;16.73;14.35;;;12.80;99.90;;;;;;7374046;19;20407;-58
2022/10/27 06:14:08;;;;;;;19.05;14.05;;;12.80;99.90;;;;;;7372695;19;20052;-60
2022/10/27 06:16:35;;;;;;;17.90;14.68;;;12.90;99.90;;;;;;7380257;19;20500;-59
2022/10/27 06:19:01;;;;;;;19.10;13.38;;;12.90;99.90;;;;;;7375369;19;20025;-58
2022/10/27 06:21:27;;;;;;;14.80;13.20;;;12.90;99.90;;;;;;7377151;19;20482;-58
2022/10/27 06:23:53;;;;;;;18.35;14.45;;;12.90;99.90;;;;;;7369170;19;20270;-59
2022/10/27 06:26:20;;;;;;;17.63;13.50;;;12.90;99.90;;;;;;7374851;19;20026;-59
2022/10/27 06:28:46;;;;;;;17.75;13.43;;;12.90;99.90;;;;;;7372660;19;20381;-57
2022/10/27 06:31:12;;;;;;;17.02;13.35;;;12.90;99.90;;;;;;7377613;19;20374;-57
2022/10/27 06:33:39;;;;;;;17.05;13.20;;;12.90;99.90;;;;;;7372333;19;20572;-56
2022/10/27 06:36:05;;;;;;;19.60;13.45;;;13.00;99.90;;;;;;7377052;19;20041;-58
2022/10/27 06:38:31;;;;;;;25.20;14.15;;;13.00;99.90;;;;;;7376220;19;20062;-60
2022/10/27 06:40:58;;;;;;;16.50;13.18;;;13.10;99.90;;;;;;7375680;19;20409;-57
2022/10/27 06:43:25;;;;;;;15.30;11.70;;;13.10;99.90;;;;;;7373670;19;20039;-57
2022/10/27 06:45:51;;;;;;;15.45;11.75;;;13.10;99.90;;;;;;7376198;19;20019;-57
2022/10/27 06:48:17;;;;;;;15.60;11.70;;;13.10;99.90;;;;;;7372418;19;20029;-57
2022/10/27 06:50:44;;;;;;;17.40;12.50;;;13.20;99.90;;;;;;7371351;19;20121;-58
2022/10/27 06:53:11;;;;;;;16.65;11.38;;;13.20;99.90;;;;;;7372153;19;20018;-58
2022/10/27 06:55:37;;;;;;;14.63;10.95;;;13.20;99.90;;;;;;7368656;19;20018;-58
2022/10/27 06:58:04;;;;;;;15.63;11.55;;;13.20;99.90;;;;;;7363563;19;20117;-58
2022/10/27 07:00:30;;;;;;;18.70;11.50;;;13.30;99.90;;;;;;7356706;19;20114;-57
2022/10/27 07:02:57;;;;;;;15.95;11.27;;;13.30;99.90;;;;;;7366266;19;20399;-57
2022/10/27 07:05:24;;;;;;;13.93;9.88;;;13.40;99.90;;;;;;7372332;19;20039;-62
2022/10/27 07:07:52;;;;;;;14.60;10.55;;;13.40;99.90;;;;;;7368279;19;20017;-56
2022/10/27 07:10:19;;;;;;;13.75;10.65;;;13.40;99.90;;;;;;7370831;19;20390;-62
2022/10/27 07:13:00;;;;;;;13.65;10.27;;;13.50;99.90;;;;;;7370481;19;20478;-56
2022/10/27 07:15:32;;;;;;;13.35;10.20;;;13.50;99.90;;;;;;7370931;19;20348;-57
2022/10/27 07:18:01;;;;;;;13.65;10.82;;;13.60;99.90;;;;;;7372931;19;20082;-62
2022/10/27 07:20:29;;;;;;;14.45;10.40;;;13.60;99.90;;;;;;7372060;19;20022;-62
2022/10/27 07:22:56;;;;;;;14.40;10.40;;;13.60;99.90;;;;;;7365791;19;20022;-56
2022/10/27 07:25:23;;;;;;;14.80;10.30;;;13.70;99.90;;;;;;7369642;19;20014;-62
2022/10/27 07:27:52;;;;;;;14.02;10.23;;;13.80;99.90;;;;;;7368721;19;20080;-57
2022/10/27 07:30:20;;;;;;;14.30;9.52;;;13.80;99.90;;;;;;7366256;19;20370;-56
2022/10/27 07:32:47;;;;;;;13.15;10.10;;;13.80;99.90;;;;;;7368346;19;20018;-55
2022/10/27 07:35:14;;;;;;;14.82;9.70;;;13.90;99.90;;;;;;7367040;19;20034;-56
2022/10/27 07:37:45;;;;;;;16.00;10.07;;;14.00;99.90;;;;;;7368948;19;20038;-56
2022/10/27 07:40:12;;;;;;;12.68;9.80;;;14.10;99.90;;;;;;7369749;19;20021;-56
2022/10/27 07:42:47;;;;;;;12.52;9.18;;;14.10;99.90;;;;;;7368333;19;20015;-56
2022/10/27 07:45:16;;;;;;;12.18;9.30;;;14.20;99.90;;;;;;7371511;19;20019;-56
2022/10/27 07:47:50;;;;;;;12.57;9.35;;;14.30;99.90;;;;;;7370054;19;20553;-53
2022/10/27 07:50:17;;;;;;;12.00;9.02;;;14.40;99.90;;;;;;7369931;19;20616;-54
2022/10/27 07:52:49;;;;;;;13.80;9.95;;;14.50;99.90;;;;;;7371150;19;20093;-59
2022/10/27 07:55:18;;;;;;;12.30;9.02;;;14.50;99.90;;;;;;7370127;19;20018;-64
2022/10/27 07:57:45;;;;;;;13.88;9.25;;;14.60;99.90;;;;;;7367476;19;20058;-65
2022/10/27 08:00:14;;;;;;;9.80;7.80;;;14.80;99.90;;;;;;7372529;19;20617;-66
2022/10/27 08:02:42;;;;;;;11.25;7.93;;;14.90;99.90;;;;;;7372393;19;20022;-59
2022/10/27 08:05:11;;;;;;;11.35;8.05;;;15.10;99.90;;;;;;7365609;19;20384;-59
2022/10/27 08:07:37;;;;;;;11.38;8.45;;;15.30;99.90;;;;;;7365330;19;20019;-58
2022/10/27 08:10:04;;;;;;;13.48;9.65;;;15.60;99.90;;;;;;7368624;19;20532;-58
2022/10/27 08:12:30;;;;;;;11.02;7.85;;;15.70;99.90;;;;;;7368278;19;20022;-59
2022/10/27 08:14:58;;;;;;;8.80;6.82;;;16.00;99.90;;;;;;7369155;19;20039;-59
2022/10/27 08:17:27;;;;;;;9.40;6.93;;;16.40;99.90;;;;;;7364841;19;20018;-58
2022/10/27 08:19:54;;;;;;;10.90;7.72;;;16.50;99.90;;;;;;7363068;19;20025;-59
2022/10/27 08:22:20;;;;;;;10.52;7.20;;;16.50;99.90;;;;;;7368599;19;20060;-58
2022/10/27 08:24:47;;;;;;;10.23;6.88;;;16.50;99.90;;;;;;7367725;19;20021;-59
2022/10/27 08:27:13;;;;;;;9.88;7.32;;;16.50;99.90;;;;;;7367184;19;20018;-59
2022/10/27 08:29:40;;;;;;;14.88;9.35;;;16.30;99.90;;;;;;7359605;19;20015;-58
2022/10/27 08:32:08;;;;;;;11.15;6.88;;;16.30;99.90;;;;;;7371151;19;20025;-58
2022/10/27 08:34:34;;;;;;;12.02;7.30;;;16.40;99.90;;;;;;7371015;19;21812;-58
2022/10/27 08:37:00;;;;;;;12.32;7.30;;;16.30;99.90;;;;;;7367462;19;20018;-59
2022/10/27 08:39:27;;;;;;;14.90;7.05;;;16.40;99.90;;;;;;7369619;19;20014;-66
2022/10/27 08:42:00;;;;;;;11.32;6.28;;;16.50;99.90;;;;;;7368372;19;20021;-64
2022/10/27 08:44:33;;;;;;;11.75;7.07;;;16.30;99.90;;;;;;7367132;19;20018;-66
2022/10/27 08:47:05;;;;;;;12.80;8.38;;;16.90;99.90;;;;;;7364477;19;20105;-65
2022/10/27 08:49:38;;;;;;;10.52;6.43;;;17.50;99.90;;;;;;7369920;19;20018;-58
2022/10/27 08:52:27;;;;;;;10.00;6.95;;;18.10;99.90;;;;;;7365639;19;20018;-58
2022/10/27 08:54:59;;;;;;;9.10;6.50;;;18.60;99.90;;;;;;7366296;19;20025;-58
2022/10/27 08:57:29;;;;;;;9.63;6.05;;;19.10;99.90;;;;;;7366448;19;20015;-58
2022/10/27 08:59:57;;;;;;;12.45;5.88;;;19.80;99.90;;;;;;7366556;19;20050;-58
2022/10/27 09:02:45;;;;;;;9.45;6.78;;;20.00;99.90;;;;;;7366232;19;20071;-58
2022/10/27 09:05:27;;;;;;;7.35;5.53;;;20.30;99.90;;;;;;7370874;19;20366;-59
2022/10/27 09:08:05;;;;;;;9.38;5.63;;;20.50;99.90;;;;;;7363568;19;20015;-59
2022/10/27 09:10:45;;;;;;;10.65;6.18;;;21.20;99.90;;;;;;7366740;19;20018;-64
2022/10/27 09:13:37;;;;;;;9.52;5.60;;;21.50;99.90;;;;;;7367938;19;20019;-64
2022/10/27 09:16:07;;;;;;;8.15;6.78;;;21.50;99.90;;;;;;7365345;19;21224;-64
2022/10/27 09:18:45;;;;;;;8.50;5.35;;;21.40;99.90;;;;;;7364456;19;20052;-64
2022/10/27 09:21:18;;;;;;;7.80;4.75;;;21.70;99.90;;;;;;7357096;19;20010;-64
2022/10/27 09:23:58;;;;;;;10.07;5.25;;;21.30;99.90;;;;;;7357641;19;20019;-64
2022/10/27 09:26:31;;;;;;;7.47;4.80;;;21.20;99.90;;;;;;7357778;19;20034;-65
2022/10/27 09:29:02;;;;;;;10.18;5.03;;;21.40;99.90;;;;;;7360882;19;20014;-64
2022/10/27 09:31:39;;;;;;;7.37;4.63;;;21.40;99.90;;;;;;7367918;19;20030;-64
2022/10/27 09:34:15;;;;;;;8.10;4.85;;;21.50;99.90;;;;;;7370764;19;20018;-64
2022/10/27 09:36:41;;;;;;;7.85;4.72;;;21.40;99.90;;;;;;7370990;19;20031;-66
2022/10/27 09:39:09;;;;;;;8.07;5.07;;;21.20;99.90;;;;;;7371896;19;20034;-64
2022/10/27 09:41:35;;;;;;;9.00;4.95;;;21.00;99.90;;;;;;7374945;19;20022;-64
2022/10/27 09:44:03;;;;;;;7.57;4.22;;;20.90;99.90;;;;;;7367591;19;20877;-64
2022/10/27 09:46:31;;;;;;;13.30;4.85;;;20.90;99.90;;;;;;7375467;19;20343;-68
2022/10/27 09:49:01;;;;;;;9.88;6.57;;;20.90;99.90;;;;;;7372425;19;20039;-64
2022/10/27 09:51:44;;;;;;;8.30;4.65;;;21.00;99.90;;;;;;7373863;19;20029;-64
2022/10/27 09:54:33;;;;;;;8.65;4.10;;;20.90;99.90;;;;;;7370817;19;20030;-64
2022/10/27 09:57:12;;;;;;;8.43;4.72;;;20.90;99.90;;;;;;7370899;19;20042;-64
2022/10/27 09:59:40;;;;;;;6.28;3.20;;;20.90;99.90;;;;;;7370129;19;20025;-64
2022/10/27 10:02:30;;;;;;;6.65;2.90;;;20.80;99.90;;;;;;7369363;19;20565;-62
2022/10/27 10:04:59;;;;;;;6.82;3.15;;;21.00;99.90;;;;;;7370313;19;20474;-64
2022/10/27 10:07:38;;;;;;;10.48;5.00;;;20.80;99.90;;;;;;7364622;19;20022;-64
2022/10/27 10:10:23;;;;;;;5.35;2.90;;;21.00;99.90;;;;;;7369059;19;20015;-64
2022/10/27 10:13:02;;;;;;;6.97;3.42;;;21.00;99.90;;;;;;7369810;19;20023;-64
2022/10/27 10:15:31;;;;;;;6.00;3.03;;;21.20;99.90;;;;;;7369224;19;20014;-64
2022/10/27 10:18:01;;;;;;;4.43;2.80;;;21.40;99.90;;;;;;7371172;19;20082;-64
2022/10/27 10:20:33;;;;;;;4.88;2.15;;;21.90;99.90;;;;;;7370332;19;20018;-64
2022/10/27 10:23:02;;;;;;;5.57;2.53;;;22.50;99.90;;;;;;7369331;19;20021;-64
2022/10/27 10:25:37;;;;;;;6.72;2.70;;;22.70;99.90;;;;;;7370904;19;20018;-63
2022/10/27 10:28:05;;;;;;;5.22;2.53;;;23.30;99.90;;;;;;7372261;19;20017;-64
2022/10/27 10:30:36;;;;;;;5.10;2.40;;;23.70;99.90;;;;;;7365104;19;20735;-63
2022/10/27 10:33:05;;;;;;;4.93;2.67;;;23.60;99.90;;;;;;7369352;19;20015;-63
2022/10/27 10:35:45;;;;;;;7.65;2.60;;;23.50;99.90;;;;;;7367182;19;21232;-63
2022/10/27 10:38:38;;;;;;;6.80;4.63;;;23.10;99.90;;;;;;7373401;19;20022;-64
2022/10/27 10:41:19;;;;;;;10.07;5.97;;;22.80;99.90;;;;;;7365499;19;20501;-57
2022/10/27 10:43:45;;;;;;;5.70;2.75;;;22.30;99.90;;;;;;7358831;19;20486;-65
2022/10/27 10:46:26;;;;;;;5.75;2.45;;;22.10;99.90;;;;;;7364781;19;20056;-64
2022/10/27 10:48:57;;;;;;;3.90;1.40;;;21.90;99.90;;;;;;7366912;19;20018;-64
2022/10/27 10:51:26;;;;;;;5.68;1.60;;;21.70;99.90;;;;;;7366748;19;20337;-64
2022/10/27 10:54:04;;;;;;;2.58;1.27;;;21.90;99.90;;;;;;7364247;19;20474;-64
2022/10/27 10:56:36;;;;;;;10.23;7.95;;;22.00;99.90;;;;;;7369272;19;20018;-64
2022/10/27 10:59:06;;;;;;;;;;;22.20;99.90;;;;;;7367020;19;20577;-64
2022/10/27 11:01:51;;;;;;;3.72;2.20;;;22.20;99.90;;;;;;7364887;19;19926;-64
2022/10/27 11:04:22;;;;;;;3.38;1.13;;;22.80;99.90;;;;;;7363350;19;20439;-64
2022/10/27 11:07:03;;;;;;;5.50;1.60;;;23.00;99.90;;;;;;7368644;19;20015;-64
2022/10/27 11:09:37;;;;;;;2.75;1.20;;;22.80;99.90;;;;;;7366468;19;20010;-64
2022/10/27 11:12:11;;;;;;;6.47;4.43;;;22.50;99.90;;;;;;7368254;19;20036;-63
2022/10/27 11:14:40;;;;;;;4.03;1.33;;;22.50;99.90;;;;;;7369112;19;20054;-64
2022/10/27 11:17:06;;;;;;;3.75;1.70;;;22.60;99.90;;;;;;7368283;19;20521;-64
2022/10/27 11:19:39;;;;;;;3.75;1.40;;;22.70;99.90;;;;;;7365530;19;20014;-64
2022/10/27 11:22:14;;;;;;;2.97;0.93;;;22.50;99.90;;;;;;7364210;19;20022;-64
2022/10/27 11:24:48;;;;;;;3.70;1.20;;;22.30;99.90;;;;;;7366675;19;20056;-57
2022/10/27 11:27:23;;;;;;;3.72;1.48;;;22.00;99.90;;;;;;7366875;19;20038;-58
2022/10/27 11:30:01;;;;;;;4.85;2.60;;;21.90;99.90;;;;;;7365258;19;20042;-64
2022/10/27 11:32:46;;;;;;;5.25;2.72;;;21.60;99.90;;;;;;7370565;19;20567;-58
2022/10/27 11:35:18;;;;;;;3.95;1.83;;;21.30;99.90;;;;;;7367968;19;20039;-59
2022/10/27 11:38:11;;;;;;;3.42;1.20;;;21.10;99.90;;;;;;7366850;19;20539;-58
2022/10/27 11:40:47;;;;;;;3.08;1.35;;;21.00;99.90;;;;;;7368664;19;20086;-58
2022/10/27 11:43:38;;;;;;;4.95;1.30;;;21.00;99.90;;;;;;7366835;19;20030;-58
2022/10/27 11:46:53;;;;;;;3.87;1.10;;;21.00;99.90;;;;;;7367732;19;20469;-59
2022/10/27 11:49:32;;;;;;;5.40;1.77;;;21.00;99.90;;;;;;7368837;19;20026;-59
2022/10/27 11:52:10;;;;;;;3.97;1.50;;;20.90;99.90;;;;;;7361703;19;20487;-59
2022/10/27 11:54:36;;;;;;;5.05;1.50;;;20.90;99.90;;;;;;7372731;19;20022;-59
2022/10/27 11:57:39;;;;;;;5.18;1.40;;;20.80;99.90;;;;;;7365867;19;20526;-60
2022/10/27 12:00:21;;;;;;;3.85;1.60;;;20.90;99.90;;;;;;7366518;19;20024;-65
2022/10/27 12:02:47;;;;;;;;;;;20.90;99.90;;;;;;7368251;19;20476;-65
2022/10/27 12:05:24;;;;;;;4.18;1.60;;;21.10;99.90;;;;;;7367174;19;20437;-65
2022/10/27 12:08:12;;;;;;;7.28;1.83;;;21.50;99.90;;;;;;7366626;19;20368;-58
2022/10/27 12:11:01;;;;;;;6.63;1.85;;;21.70;99.90;;;;;;7368141;19;20022;-59
2022/10/27 12:13:49;;;;;;;2.78;1.42;;;21.80;99.90;;;;;;7368536;19;20158;-58
2022/10/27 12:16:29;;;;;;;5.05;1.52;;;21.80;99.90;;;;;;7365242;19;20022;-60
2022/10/27 12:19:28;;;;;;;4.75;1.63;;;21.70;99.90;;;;;;7369460;19;20434;-58
2022/10/27 12:22:02;;;;;;;5.60;2.38;;;21.60;99.90;;;;;;7366445;19;20057;-58
2022/10/27 12:24:55;;;;;;;8.25;2.60;;;21.80;99.90;;;;;;7364759;19;20025;-57
2022/10/27 12:27:28;;;;;;;10.07;2.00;;;22.10;99.90;;;;;;7364881;19;20025;-58
2022/10/27 12:30:01;;;;;;;4.32;1.52;;;22.30;99.90;;;;;;7369234;19;20019;-58
2022/10/27 12:32:40;;;;;;;6.07;1.60;;;22.30;99.90;;;;;;7367699;19;20010;-57
2022/10/27 12:35:28;;;;;;;3.55;1.40;;;22.10;99.90;;;;;;7364418;19;20492;-58
2022/10/27 12:38:00;;;;;;;6.57;1.88;;;21.70;99.90;;;;;;7365380;19;20118;-58
2022/10/27 12:40:52;;;;;;;4.75;1.20;;;21.60;99.90;;;;;;7367769;19;20019;-58
2022/10/27 12:43:33;;;;;;;5.50;2.40;;;21.30;99.90;;;;;;7367155;19;20014;-58
2022/10/27 12:46:24;;;;;;;6.00;1.50;;;21.20;99.90;;;;;;7371109;19;20018;-59
2022/10/27 12:48:59;;;;;;;3.53;1.35;;;21.00;99.90;;;;;;7370978;19;20047;-58
2022/10/27 12:51:47;;;;;;;5.15;1.75;;;21.00;99.90;;;;;;7365403;19;20018;-58
2022/10/27 12:54:43;;;;;;;6.15;3.13;;;21.30;99.90;;;;;;7369829;19;20022;-58
2022/10/27 12:57:10;;;;;;;4.28;1.65;;;21.70;99.90;;;;;;7362823;19;20494;-58
2022/10/27 12:59:45;;;;;;;6.85;3.30;;;22.10;99.90;;;;;;7366529;19;20022;-65